TVF4319 EKCH-LFPO
Flight info
| Callsign | TVF4319 |
|---|---|
| Flight time | N/A |
| Altitude | 36000 |
| Route | NEXEN T503 GIMRU DCT MICOS DCT IDOSA DCT TOLVU/N0434F370 DCT RAPOR DCT RENSA |
| Aircraft | A320/M-SDE3FGHIRWY/LB1 |
Departure
| Time | 2026-04-23 09:46 |
|---|---|
| Airport | Copenhagen Kastrup Airport (EKCH) |
Arrival
| Time | N/A |
|---|---|
| Airport | Paris-Orly Airport (LFPO) |
| Time | Latitude | Longitude | Altitude | Speed | Heading |
|---|---|---|---|---|---|
| 2026-04-23 09:08 | 55.62809 | 12.64355 | 22 ft | 0 kts | 308° |
| 2026-04-23 09:32 | 55.62802 | 12.64371 | 21 ft | 2 kts | 307° |
| 2026-04-23 09:33 | 55.62797 | 12.64400 | 20 ft | 2 kts | 233° |
| 2026-04-23 09:33 | 55.62797 | 12.64402 | 20 ft | 0 kts | 227° |
| 2026-04-23 09:39 | 55.62778 | 12.64378 | 22 ft | 7 kts | 206° |
| 2026-04-23 09:39 | 55.62725 | 12.64345 | 21 ft | 8 kts | 197° |
| 2026-04-23 09:40 | 55.62666 | 12.64311 | 22 ft | 9 kts | 200° |
| 2026-04-23 09:40 | 55.62612 | 12.64267 | 23 ft | 7 kts | 207° |
| 2026-04-23 09:40 | 55.62558 | 12.64216 | 22 ft | 11 kts | 200° |
| 2026-04-23 09:40 | 55.62491 | 12.64287 | 20 ft | 14 kts | 128° |
| 2026-04-23 09:41 | 55.62426 | 12.64443 | 19 ft | 17 kts | 124° |
| 2026-04-23 09:41 | 55.62359 | 12.64619 | 21 ft | 18 kts | 123° |
| 2026-04-23 09:41 | 55.62297 | 12.64775 | 24 ft | 12 kts | 135° |
| 2026-04-23 09:41 | 55.62210 | 12.64788 | 25 ft | 15 kts | 203° |
| 2026-04-23 09:42 | 55.62115 | 12.64675 | 22 ft | 18 kts | 216° |
| 2026-04-23 09:42 | 55.61993 | 12.64531 | 20 ft | 22 kts | 199° |
| 2026-04-23 09:42 | 55.61836 | 12.64528 | 21 ft | 24 kts | 168° |
| 2026-04-23 09:42 | 55.61664 | 12.64539 | 19 ft | 26 kts | 215° |
| 2026-04-23 09:43 | 55.61502 | 12.64376 | 19 ft | 28 kts | 212° |
| 2026-04-23 09:43 | 55.61329 | 12.64179 | 16 ft | 31 kts | 213° |
| 2026-04-23 09:43 | 55.61145 | 12.63958 | 18 ft | 32 kts | 213° |
| 2026-04-23 09:43 | 55.60953 | 12.63736 | 23 ft | 33 kts | 213° |
| 2026-04-23 09:44 | 55.60754 | 12.63504 | 20 ft | 36 kts | 214° |
| 2026-04-23 09:44 | 55.60566 | 12.63265 | 20 ft | 22 kts | 219° |
| 2026-04-23 09:44 | 55.60496 | 12.63217 | 23 ft | 7 kts | 154° |
| 2026-04-23 09:44 | 55.60461 | 12.63277 | 24 ft | 8 kts | 131° |
| 2026-04-23 09:45 | 55.60459 | 12.63282 | 24 ft | 0 kts | 130° |
| 2026-04-23 09:45 | 55.60438 | 12.63325 | 25 ft | 10 kts | 130° |
| 2026-04-23 09:45 | 55.60427 | 12.63491 | 26 ft | 21 kts | 61° |
| 2026-04-23 09:46 | 55.60664 | 12.63835 | 27 ft | 83 kts | 41° |
| 2026-04-23 09:46 | 55.61281 | 12.64788 | 23 ft | 147 kts | 40° |
| 2026-04-23 09:46 | 55.62156 | 12.66049 | 402 ft | 167 kts | 36° |
| 2026-04-23 09:46 | 55.63061 | 12.67417 | 895 ft | 181 kts | 37° |
| 2026-04-23 09:47 | 55.64064 | 12.68989 | 1252 ft | 204 kts | 39° |
| 2026-04-23 09:47 | 55.65183 | 12.70752 | 1615 ft | 228 kts | 37° |
| 2026-04-23 09:47 | 55.66442 | 12.72677 | 2139 ft | 246 kts | 37° |
| 2026-04-23 09:47 | 55.67749 | 12.74645 | 3107 ft | 247 kts | 37° |
| 2026-04-23 09:48 | 55.68983 | 12.76776 | 4101 ft | 252 kts | 50° |
| 2026-04-23 09:48 | 55.69749 | 12.79729 | 5037 ft | 264 kts | 72° |
| 2026-04-23 09:48 | 55.69786 | 12.82943 | 5888 ft | 278 kts | 96° |
| 2026-04-23 09:48 | 55.69008 | 12.86154 | 6743 ft | 293 kts | 123° |
| 2026-04-23 09:49 | 55.67445 | 12.88532 | 7518 ft | 304 kts | 152° |
| 2026-04-23 09:49 | 55.65460 | 12.89919 | 8339 ft | 308 kts | 160° |
| 2026-04-23 09:49 | 55.63369 | 12.90793 | 9152 ft | 311 kts | 176° |
| 2026-04-23 09:49 | 55.61213 | 12.90663 | 9964 ft | 311 kts | 193° |
| 2026-04-23 09:50 | 55.59145 | 12.89554 | 10602 ft | 316 kts | 208° |
| 2026-04-23 09:50 | 55.57217 | 12.87417 | 10797 ft | 333 kts | 225° |
| 2026-04-23 09:50 | 55.55570 | 12.84449 | 11178 ft | 343 kts | 231° |
| 2026-04-23 09:50 | 55.53904 | 12.81365 | 11775 ft | 349 kts | 230° |
| 2026-04-23 09:51 | 55.52201 | 12.78266 | 12419 ft | 354 kts | 230° |
| 2026-04-23 09:51 | 55.50496 | 12.75088 | 13064 ft | 358 kts | 232° |
| 2026-04-23 09:51 | 55.48839 | 12.71749 | 13713 ft | 362 kts | 234° |
| 2026-04-23 09:51 | 55.47220 | 12.68332 | 14297 ft | 367 kts | 234° |
| 2026-04-23 09:52 | 55.45593 | 12.64830 | 14865 ft | 371 kts | 234° |
| 2026-04-23 09:52 | 55.43953 | 12.61296 | 15437 ft | 375 kts | 234° |
| 2026-04-23 09:52 | 55.42285 | 12.57729 | 15981 ft | 379 kts | 234° |
| 2026-04-23 09:52 | 55.40585 | 12.54140 | 16530 ft | 384 kts | 233° |
| 2026-04-23 09:53 | 55.38855 | 12.50526 | 17088 ft | 388 kts | 233° |
| 2026-04-23 09:53 | 55.37104 | 12.46888 | 17654 ft | 392 kts | 233° |
| 2026-04-23 09:53 | 55.35332 | 12.43211 | 18206 ft | 396 kts | 233° |
| 2026-04-23 09:53 | 55.33538 | 12.39496 | 18736 ft | 401 kts | 233° |
| 2026-04-23 09:54 | 55.31727 | 12.35751 | 19251 ft | 404 kts | 233° |
| 2026-04-23 09:54 | 55.29902 | 12.31979 | 19790 ft | 407 kts | 232° |
| 2026-04-23 09:54 | 55.28064 | 12.28184 | 20340 ft | 410 kts | 232° |
| 2026-04-23 09:54 | 55.26212 | 12.24369 | 20887 ft | 412 kts | 232° |
| 2026-04-23 09:55 | 55.24343 | 12.20530 | 21422 ft | 415 kts | 232° |
| 2026-04-23 09:55 | 55.22467 | 12.16684 | 21973 ft | 416 kts | 232° |
| 2026-04-23 09:55 | 55.20518 | 12.12893 | 22520 ft | 420 kts | 226° |
| 2026-04-23 09:55 | 55.18261 | 12.09618 | 23039 ft | 424 kts | 217° |
| 2026-04-23 09:56 | 55.16655 | 12.07563 | 23394 ft | 426 kts | 217° |
| 2026-04-23 09:56 | 55.14253 | 12.04497 | 23901 ft | 428 kts | 217° |
| 2026-04-23 09:56 | 55.11836 | 12.01417 | 24319 ft | 431 kts | 217° |
| 2026-04-23 09:56 | 55.09411 | 11.98328 | 24725 ft | 433 kts | 217° |
| 2026-04-23 09:57 | 55.06971 | 11.95218 | 25136 ft | 436 kts | 217° |
| 2026-04-23 09:57 | 55.04510 | 11.92084 | 25524 ft | 439 kts | 217° |
| 2026-04-23 09:57 | 55.02038 | 11.88941 | 25912 ft | 441 kts | 217° |
| 2026-04-23 09:57 | 54.99552 | 11.85787 | 26313 ft | 444 kts | 217° |
| 2026-04-23 09:58 | 54.97050 | 11.82621 | 26688 ft | 446 kts | 217° |
| 2026-04-23 09:58 | 54.94522 | 11.79433 | 27052 ft | 449 kts | 217° |
| 2026-04-23 09:58 | 54.91992 | 11.76249 | 27406 ft | 451 kts | 217° |
| 2026-04-23 09:58 | 54.89441 | 11.73037 | 27760 ft | 454 kts | 217° |
| 2026-04-23 09:59 | 54.86888 | 11.69820 | 28114 ft | 456 kts | 217° |
| 2026-04-23 09:59 | 54.84304 | 11.66571 | 28466 ft | 459 kts | 217° |
| 2026-04-23 09:59 | 54.81716 | 11.63325 | 28812 ft | 461 kts | 217° |
| 2026-04-23 09:59 | 54.79105 | 11.60057 | 29165 ft | 464 kts | 216° |
| 2026-04-23 10:00 | 54.76483 | 11.56781 | 29486 ft | 466 kts | 216° |
| 2026-04-23 10:00 | 54.73849 | 11.53494 | 29838 ft | 469 kts | 216° |
| 2026-04-23 10:00 | 54.71197 | 11.50187 | 30188 ft | 471 kts | 216° |
| 2026-04-23 10:00 | 54.68490 | 11.46818 | 30489 ft | 474 kts | 216° |
| 2026-04-23 10:01 | 54.65813 | 11.43492 | 30773 ft | 476 kts | 216° |
| 2026-04-23 10:01 | 54.63153 | 11.40191 | 31087 ft | 477 kts | 216° |
| 2026-04-23 10:01 | 54.60427 | 11.36816 | 31510 ft | 475 kts | 216° |
| 2026-04-23 10:01 | 54.57747 | 11.33508 | 31957 ft | 472 kts | 215° |
| 2026-04-23 10:02 | 54.55088 | 11.30234 | 32452 ft | 469 kts | 215° |
| 2026-04-23 10:02 | 54.52433 | 11.26985 | 32906 ft | 467 kts | 215° |
| 2026-04-23 10:02 | 54.49780 | 11.23758 | 33341 ft | 466 kts | 214° |
| 2026-04-23 10:02 | 54.47128 | 11.20540 | 33744 ft | 465 kts | 214° |
| 2026-04-23 10:03 | 54.44493 | 11.17349 | 34138 ft | 465 kts | 214° |
| 2026-04-23 10:03 | 54.41850 | 11.14153 | 34515 ft | 464 kts | 214° |
| 2026-04-23 10:03 | 54.39212 | 11.10965 | 34851 ft | 463 kts | 214° |
| 2026-04-23 10:03 | 54.36573 | 11.07779 | 35165 ft | 463 kts | 214° |
| 2026-04-23 10:04 | 54.33941 | 11.04613 | 35492 ft | 462 kts | 214° |
| 2026-04-23 10:04 | 54.31308 | 11.01456 | 35798 ft | 462 kts | 214° |
| 2026-04-23 10:04 | 54.28688 | 10.98270 | 36101 ft | 461 kts | 215° |
| 2026-04-23 10:04 | 54.26104 | 10.95022 | 36282 ft | 462 kts | 216° |
| 2026-04-23 10:05 | 54.23496 | 10.91673 | 36317 ft | 463 kts | 216° |
| 2026-04-23 10:05 | 54.18370 | 10.85018 | 36318 ft | 462 kts | 216° |
| 2026-04-23 10:06 | 54.13230 | 10.78428 | 36320 ft | 462 kts | 215° |
| 2026-04-23 10:06 | 54.08050 | 10.71909 | 36323 ft | 462 kts | 215° |
| 2026-04-23 10:07 | 54.02880 | 10.65419 | 36327 ft | 462 kts | 215° |
| 2026-04-23 10:07 | 53.97668 | 10.58859 | 36332 ft | 463 kts | 215° |
| 2026-04-23 10:08 | 53.92486 | 10.52377 | 36326 ft | 463 kts | 214° |
| 2026-04-23 10:08 | 53.87307 | 10.45913 | 36349 ft | 461 kts | 214° |
| 2026-04-23 10:09 | 53.79563 | 10.36288 | 36365 ft | 460 kts | 214° |
| 2026-04-23 10:09 | 53.74404 | 10.29898 | 36371 ft | 460 kts | 214° |
| 2026-04-23 10:10 | 53.69245 | 10.23517 | 36369 ft | 459 kts | 214° |
| 2026-04-23 10:10 | 53.64081 | 10.17159 | 36369 ft | 459 kts | 214° |
| 2026-04-23 10:11 | 53.58918 | 10.10824 | 36370 ft | 459 kts | 214° |
| 2026-04-23 10:11 | 53.53748 | 10.04500 | 36372 ft | 459 kts | 213° |
| 2026-04-23 10:12 | 53.48549 | 9.98159 | 36369 ft | 459 kts | 213° |
| 2026-04-23 10:12 | 53.43371 | 9.91869 | 36359 ft | 459 kts | 213° |
| 2026-04-23 10:13 | 53.38204 | 9.85608 | 36360 ft | 459 kts | 213° |
| 2026-04-23 10:13 | 53.33024 | 9.79341 | 36367 ft | 459 kts | 213° |
| 2026-04-23 10:14 | 53.27852 | 9.73105 | 36365 ft | 459 kts | 213° |
| 2026-04-23 10:14 | 53.22668 | 9.66888 | 36363 ft | 459 kts | 213° |
| 2026-04-23 10:15 | 53.17448 | 9.60643 | 36361 ft | 459 kts | 213° |
| 2026-04-23 10:15 | 53.12261 | 9.54455 | 36367 ft | 459 kts | 213° |
| 2026-04-23 10:16 | 53.07074 | 9.48282 | 36370 ft | 459 kts | 213° |
| 2026-04-23 10:16 | 53.01880 | 9.42110 | 36371 ft | 459 kts | 213° |
| 2026-04-23 10:17 | 52.96678 | 9.35953 | 36375 ft | 459 kts | 213° |
| 2026-04-23 10:17 | 52.91440 | 9.29780 | 36379 ft | 459 kts | 212° |
| 2026-04-23 10:18 | 52.86233 | 9.23663 | 36389 ft | 459 kts | 212° |
| 2026-04-23 10:18 | 52.81029 | 9.17574 | 36387 ft | 459 kts | 212° |
| 2026-04-23 10:19 | 52.75823 | 9.11484 | 36387 ft | 459 kts | 212° |
| 2026-04-23 10:19 | 52.70608 | 9.05398 | 36388 ft | 458 kts | 212° |
| 2026-04-23 10:20 | 52.65410 | 8.99358 | 36402 ft | 457 kts | 211° |
| 2026-04-23 10:20 | 52.60207 | 8.93342 | 36406 ft | 456 kts | 211° |
| 2026-04-23 10:21 | 52.55017 | 8.87347 | 36406 ft | 456 kts | 211° |
| 2026-04-23 10:21 | 52.49822 | 8.81367 | 36410 ft | 456 kts | 211° |
| 2026-04-23 10:22 | 52.44595 | 8.75378 | 36414 ft | 456 kts | 211° |
| 2026-04-23 10:22 | 52.40240 | 8.70387 | 36419 ft | 456 kts | 211° |
| 2026-04-23 10:23 | 52.35041 | 8.64440 | 36418 ft | 456 kts | 211° |
| 2026-04-23 10:23 | 52.29840 | 8.58515 | 36416 ft | 456 kts | 211° |
| 2026-04-23 10:24 | 52.24605 | 8.52571 | 36413 ft | 455 kts | 211° |
| 2026-04-23 10:24 | 52.19393 | 8.46680 | 36428 ft | 456 kts | 211° |
| 2026-04-23 10:25 | 52.14177 | 8.40801 | 36429 ft | 456 kts | 211° |
| 2026-04-23 10:25 | 52.08965 | 8.34928 | 36429 ft | 455 kts | 211° |
| 2026-04-23 10:26 | 52.03757 | 8.29073 | 36434 ft | 454 kts | 211° |
| 2026-04-23 10:26 | 51.98524 | 8.23224 | 36454 ft | 453 kts | 210° |
| 2026-04-23 10:27 | 51.93336 | 8.17435 | 36447 ft | 453 kts | 210° |
| 2026-04-23 10:27 | 51.88147 | 8.11654 | 36444 ft | 452 kts | 210° |
| 2026-04-23 10:28 | 51.82924 | 8.05868 | 36438 ft | 452 kts | 210° |
| 2026-04-23 10:28 | 51.77734 | 8.00134 | 36442 ft | 452 kts | 210° |
| 2026-04-23 10:29 | 51.72547 | 7.94410 | 36451 ft | 451 kts | 210° |
| 2026-04-23 10:29 | 51.67369 | 7.88709 | 36451 ft | 451 kts | 210° |
| 2026-04-23 10:30 | 51.62182 | 7.83020 | 36449 ft | 451 kts | 210° |
| 2026-04-23 10:30 | 51.56957 | 7.77312 | 36453 ft | 451 kts | 210° |
| 2026-04-23 10:31 | 51.51794 | 7.71675 | 36467 ft | 451 kts | 210° |
| 2026-04-23 10:31 | 51.46578 | 7.65992 | 36465 ft | 450 kts | 209° |
| 2026-04-23 10:32 | 51.41442 | 7.60419 | 36434 ft | 449 kts | 209° |
| 2026-04-23 10:32 | 51.36273 | 7.54826 | 36434 ft | 448 kts | 209° |
| 2026-04-23 10:33 | 51.31105 | 7.49263 | 36449 ft | 448 kts | 209° |
| 2026-04-23 10:33 | 51.25897 | 7.43678 | 36444 ft | 448 kts | 209° |
| 2026-04-23 10:34 | 51.20727 | 7.38127 | 36441 ft | 448 kts | 209° |
| 2026-04-23 10:34 | 51.15524 | 7.32561 | 36434 ft | 447 kts | 209° |
| 2026-04-23 10:35 | 51.10355 | 7.27042 | 36417 ft | 447 kts | 209° |
| 2026-04-23 10:35 | 51.05185 | 7.21550 | 36426 ft | 447 kts | 209° |
| 2026-04-23 10:36 | 51.00020 | 7.16068 | 36429 ft | 446 kts | 209° |
| 2026-04-23 10:36 | 50.94855 | 7.10595 | 36429 ft | 446 kts | 209° |
| 2026-04-23 10:37 | 50.89652 | 7.05108 | 36433 ft | 446 kts | 209° |
| 2026-04-23 10:37 | 50.84491 | 6.99687 | 36435 ft | 445 kts | 209° |
| 2026-04-23 10:38 | 50.79334 | 6.94269 | 36435 ft | 444 kts | 209° |
| 2026-04-23 10:38 | 50.74189 | 6.88877 | 36451 ft | 444 kts | 208° |
| 2026-04-23 10:39 | 50.69042 | 6.83505 | 36449 ft | 443 kts | 208° |
| 2026-04-23 10:39 | 50.63888 | 6.78155 | 36449 ft | 443 kts | 208° |
| 2026-04-23 10:40 | 50.58738 | 6.72806 | 36423 ft | 443 kts | 208° |
| 2026-04-23 10:40 | 50.53583 | 6.67459 | 36415 ft | 443 kts | 208° |
| 2026-04-23 10:41 | 50.48432 | 6.62142 | 36408 ft | 443 kts | 208° |
| 2026-04-23 10:41 | 50.43241 | 6.56798 | 36415 ft | 443 kts | 208° |
| 2026-04-23 10:42 | 50.38080 | 6.51493 | 36398 ft | 443 kts | 208° |
| 2026-04-23 10:42 | 50.32921 | 6.46212 | 36388 ft | 443 kts | 208° |
| 2026-04-23 10:43 | 50.27752 | 6.40941 | 36398 ft | 443 kts | 208° |
| 2026-04-23 10:43 | 50.22592 | 6.35676 | 36407 ft | 443 kts | 208° |
| 2026-04-23 10:44 | 50.17433 | 6.30421 | 36408 ft | 443 kts | 208° |
| 2026-04-23 10:44 | 50.12275 | 6.25189 | 36396 ft | 443 kts | 208° |
| 2026-04-23 10:45 | 50.07075 | 6.19927 | 36407 ft | 443 kts | 208° |
| 2026-04-23 10:45 | 50.01906 | 6.14714 | 36415 ft | 443 kts | 207° |
| 2026-04-23 10:46 | 49.96734 | 6.09516 | 36410 ft | 443 kts | 207° |
| 2026-04-23 10:46 | 49.91559 | 6.04329 | 36411 ft | 443 kts | 207° |
| 2026-04-23 10:47 | 49.86383 | 5.99144 | 36410 ft | 443 kts | 207° |
| 2026-04-23 10:47 | 49.81203 | 5.93975 | 36421 ft | 443 kts | 207° |
| 2026-04-23 10:48 | 49.77032 | 5.89362 | 36419 ft | 449 kts | 217° |
| 2026-04-23 10:48 | 49.73127 | 5.81752 | 36420 ft | 460 kts | 238° |
| 2026-04-23 10:49 | 49.70782 | 5.72445 | 36413 ft | 464 kts | 247° |
| 2026-04-23 10:49 | 49.68615 | 5.63051 | 35815 ft | 466 kts | 246° |
| 2026-04-23 10:50 | 49.67135 | 5.56712 | 34609 ft | 473 kts | 246° |
| 2026-04-23 10:50 | 49.66377 | 5.53480 | 33806 ft | 473 kts | 246° |
| 2026-04-23 10:50 | 49.65260 | 5.48720 | 32744 ft | 469 kts | 246° |
| 2026-04-23 10:50 | 49.64154 | 5.44025 | 31810 ft | 463 kts | 246° |
| 2026-04-23 10:51 | 49.63061 | 5.39386 | 30930 ft | 457 kts | 245° |
| 2026-04-23 10:51 | 49.61992 | 5.34809 | 30008 ft | 450 kts | 246° |
| 2026-04-23 10:51 | 49.60987 | 5.30276 | 29074 ft | 443 kts | 248° |
| 2026-04-23 10:51 | 49.60035 | 5.25799 | 28169 ft | 436 kts | 248° |
| 2026-04-23 10:52 | 49.59114 | 5.21381 | 27297 ft | 429 kts | 249° |
| 2026-04-23 10:52 | 49.58268 | 5.17010 | 26507 ft | 422 kts | 251° |
| 2026-04-23 10:52 | 49.57508 | 5.12709 | 26081 ft | 407 kts | 252° |
| 2026-04-23 10:52 | 49.56811 | 5.08561 | 25709 ft | 393 kts | 252° |
| 2026-04-23 10:53 | 49.56141 | 5.04558 | 25317 ft | 380 kts | 252° |
| 2026-04-23 10:53 | 49.55484 | 5.00680 | 24922 ft | 367 kts | 252° |
| 2026-04-23 10:53 | 49.54834 | 4.96948 | 24542 ft | 356 kts | 252° |
| 2026-04-23 10:53 | 49.54189 | 4.93321 | 24157 ft | 353 kts | 252° |
| 2026-04-23 10:54 | 49.53510 | 4.89582 | 23354 ft | 368 kts | 251° |
| 2026-04-23 10:54 | 49.52810 | 4.85725 | 22528 ft | 368 kts | 251° |
| 2026-04-23 10:54 | 49.52128 | 4.81948 | 21739 ft | 365 kts | 251° |
| 2026-04-23 10:54 | 49.51456 | 4.78192 | 20964 ft | 362 kts | 251° |
| 2026-04-23 10:55 | 49.50792 | 4.74483 | 20220 ft | 359 kts | 251° |
| 2026-04-23 10:55 | 49.50127 | 4.70794 | 19487 ft | 356 kts | 251° |
| 2026-04-23 10:55 | 49.49467 | 4.67146 | 18771 ft | 353 kts | 251° |
| 2026-04-23 10:55 | 49.48807 | 4.63517 | 17984 ft | 350 kts | 252° |
| 2026-04-23 10:56 | 49.48150 | 4.59926 | 17192 ft | 347 kts | 252° |
| 2026-04-23 10:56 | 49.47500 | 4.56370 | 16420 ft | 344 kts | 252° |
| 2026-04-23 10:56 | 49.46855 | 4.52835 | 15666 ft | 342 kts | 253° |
| 2026-04-23 10:56 | 49.46215 | 4.49339 | 14936 ft | 339 kts | 253° |
| 2026-04-23 10:57 | 49.45567 | 4.45805 | 14503 ft | 328 kts | 253° |
| 2026-04-23 10:57 | 49.44949 | 4.42446 | 14372 ft | 327 kts | 253° |
| 2026-04-23 10:57 | 49.44327 | 4.39077 | 14379 ft | 326 kts | 253° |
| 2026-04-23 10:57 | 49.43708 | 4.35718 | 14381 ft | 328 kts | 253° |
| 2026-04-23 10:58 | 49.43087 | 4.32357 | 14379 ft | 328 kts | 253° |
| 2026-04-23 10:58 | 49.42459 | 4.28963 | 14381 ft | 329 kts | 253° |
| 2026-04-23 10:58 | 49.41832 | 4.25588 | 14379 ft | 329 kts | 253° |
| 2026-04-23 10:58 | 49.41207 | 4.22217 | 14379 ft | 327 kts | 253° |
| 2026-04-23 10:59 | 49.40584 | 4.18870 | 14381 ft | 329 kts | 253° |
| 2026-04-23 10:59 | 49.39952 | 4.15477 | 14379 ft | 329 kts | 253° |
| 2026-04-23 10:59 | 49.39312 | 4.12060 | 14379 ft | 329 kts | 253° |
| 2026-04-23 10:59 | 49.38681 | 4.08691 | 14379 ft | 329 kts | 253° |
| 2026-04-23 11:00 | 49.38055 | 4.05347 | 14380 ft | 327 kts | 253° |
| 2026-04-23 11:00 | 49.37421 | 4.01965 | 14383 ft | 328 kts | 253° |
| 2026-04-23 11:00 | 49.36785 | 3.98611 | 14378 ft | 329 kts | 251° |
| 2026-04-23 11:00 | 49.35900 | 3.95385 | 14379 ft | 328 kts | 242° |
| 2026-04-23 11:01 | 49.34850 | 3.92238 | 14381 ft | 327 kts | 242° |
| 2026-04-23 11:01 | 49.33813 | 3.89131 | 14374 ft | 326 kts | 242° |
| 2026-04-23 11:01 | 49.32777 | 3.86026 | 14376 ft | 327 kts | 242° |
| 2026-04-23 11:01 | 49.31740 | 3.82919 | 14373 ft | 328 kts | 241° |
| 2026-04-23 11:02 | 49.30702 | 3.79809 | 14374 ft | 327 kts | 241° |
| 2026-04-23 11:02 | 49.29665 | 3.76703 | 14374 ft | 327 kts | 242° |
| 2026-04-23 11:02 | 49.28629 | 3.73604 | 14370 ft | 327 kts | 241° |
| 2026-04-23 11:02 | 49.27591 | 3.70509 | 14368 ft | 327 kts | 242° |
| 2026-04-23 11:03 | 49.26544 | 3.67409 | 14371 ft | 328 kts | 240° |
| 2026-04-23 11:03 | 49.25429 | 3.64322 | 14271 ft | 327 kts | 239° |
| 2026-04-23 11:03 | 49.24288 | 3.61324 | 13747 ft | 324 kts | 238° |
| 2026-04-23 11:03 | 49.23131 | 3.58362 | 12936 ft | 324 kts | 238° |
| 2026-04-23 11:04 | 49.21974 | 3.55419 | 12188 ft | 323 kts | 238° |
| 2026-04-23 11:04 | 49.20825 | 3.52477 | 11561 ft | 319 kts | 237° |
| 2026-04-23 11:04 | 49.19701 | 3.49566 | 10903 ft | 316 kts | 238° |
| 2026-04-23 11:04 | 49.18599 | 3.46693 | 10469 ft | 307 kts | 237° |
| 2026-04-23 11:05 | 49.17522 | 3.43884 | 10350 ft | 306 kts | 237° |
| 2026-04-23 11:05 | 49.16441 | 3.41066 | 10364 ft | 307 kts | 238° |
| 2026-04-23 11:05 | 49.15364 | 3.38267 | 10363 ft | 305 kts | 238° |
| 2026-04-23 11:05 | 49.14288 | 3.35474 | 10367 ft | 304 kts | 238° |
| 2026-04-23 11:06 | 49.12140 | 3.29901 | 10361 ft | 305 kts | 238° |
| 2026-04-23 11:06 | 49.11045 | 3.27069 | 10362 ft | 306 kts | 238° |
| 2026-04-23 11:06 | 49.09964 | 3.24274 | 10365 ft | 305 kts | 237° |
| 2026-04-23 11:07 | 49.08891 | 3.21501 | 10367 ft | 303 kts | 238° |
| 2026-04-23 11:07 | 49.07802 | 3.18683 | 10362 ft | 305 kts | 238° |
| 2026-04-23 11:07 | 49.06723 | 3.15897 | 10362 ft | 306 kts | 237° |
| 2026-04-23 11:07 | 49.05601 | 3.13153 | 10357 ft | 304 kts | 229° |
| 2026-04-23 11:08 | 49.04054 | 3.11031 | 10362 ft | 299 kts | 208° |
| 2026-04-23 11:08 | 49.02237 | 3.09497 | 10361 ft | 298 kts | 206° |
| 2026-04-23 11:08 | 49.00414 | 3.07995 | 10358 ft | 299 kts | 206° |
| 2026-04-23 11:08 | 48.98586 | 3.06500 | 10357 ft | 299 kts | 204° |
| 2026-04-23 11:09 | 48.96752 | 3.05001 | 10356 ft | 299 kts | 206° |
| 2026-04-23 11:09 | 48.94921 | 3.03501 | 10358 ft | 299 kts | 206° |
| 2026-04-23 11:09 | 48.93093 | 3.02002 | 10356 ft | 298 kts | 205° |
| 2026-04-23 11:09 | 48.91263 | 3.00502 | 10362 ft | 299 kts | 206° |
| 2026-04-23 11:10 | 48.89436 | 2.99006 | 10359 ft | 299 kts | 205° |
| 2026-04-23 11:10 | 48.87604 | 2.97510 | 10354 ft | 299 kts | 206° |
| 2026-04-23 11:10 | 48.85772 | 2.96016 | 10350 ft | 299 kts | 206° |
| 2026-04-23 11:10 | 48.83918 | 2.94508 | 10349 ft | 298 kts | 205° |
| 2026-04-23 11:11 | 48.82709 | 2.93524 | 10354 ft | 298 kts | 205° |
| 2026-04-23 11:11 | 48.80266 | 2.91538 | 10351 ft | 298 kts | 204° |
| 2026-04-23 11:11 | 48.78439 | 2.90053 | 10343 ft | 299 kts | 205° |
| 2026-04-23 11:11 | 48.76582 | 2.88545 | 10350 ft | 304 kts | 204° |
| 2026-04-23 11:12 | 48.74722 | 2.87036 | 10341 ft | 304 kts | 205° |
| 2026-04-23 11:12 | 48.73478 | 2.86028 | 10343 ft | 304 kts | 204° |
| 2026-04-23 11:12 | 48.71589 | 2.84498 | 10343 ft | 304 kts | 205° |
| 2026-04-23 11:12 | 48.69726 | 2.82992 | 10337 ft | 305 kts | 204° |
| 2026-04-23 11:13 | 48.67852 | 2.81481 | 10337 ft | 304 kts | 205° |
| 2026-04-23 11:13 | 48.65987 | 2.79978 | 10326 ft | 304 kts | 205° |
| 2026-04-23 11:13 | 48.64108 | 2.78461 | 10329 ft | 304 kts | 205° |